MSC Barbara — HODU — position and weather

sailwx.info

Track history (hours):
 
Tides and Currents Weather Stations Pressure Air Temp Water Temp Dewpoint Dewpoint Depression Visibility Wind Speed Wind Dir Waves Ship Positions

MSC Barbara

Last reported at 2015-May-25 23:32 UTC. Time now 2015-May-25 23:40 UTC.
Position N 51°17' E 004°21'.

Length 512 m; draft 10.2 m.

Type: Ship. MMSI: 353775000.

Date/timePositionNaut miles runAvg speedWind from/ knotsBaromVisibWave heightAir tempDewpointWater temp
2015-May-25 23:32N 51°17' E 004°21'0 0.0
2015-May-25 22:32N 51°17' E 004°21'0 0.0
2015-May-25 21:31N 51°17' E 004°21'0 0.0
2015-May-25 20:31N 51°17' E 004°21'0 0.0
2015-May-25 19:33N 51°17' E 004°21'0 0.0
2015-May-25 18:33N 51°17' E 004°21'0 0.0
2015-May-25 17:33N 51°17' E 004°21'0 0.0
2015-May-25 16:32N 51°17' E 004°21'0 0.0
2015-May-25 15:32N 51°17' E 004°21'0 0.0
2015-May-25 14:31N 51°17' E 004°21'0 0.0
2015-May-25 13:31N 51°17' E 004°21'0 0.0
2015-May-25 12:32N 51°17' E 004°21'0 0.0
2015-May-25 11:30N 51°17' E 004°21'0 0.0
2015-May-25 10:33N 51°17' E 004°21'0 0.0
2015-May-25 09:29N 51°17' E 004°21'0 0.0
2015-May-25 08:32N 51°17' E 004°21'0 0.0
2015-May-25 07:31N 51°17' E 004°21'0 0.0
2015-May-25 06:28N 51°17' E 004°21'0 0.0
2015-May-25 05:33N 51°17' E 004°21'0 0.0
2015-May-25 04:30N 51°17' E 004°21'0 0.0
2015-May-25 03:33N 51°17' E 004°21'2 1.5
2015-May-25 02:33N 51°18' E 004°20'2 1.6
2015-May-25 01:31N 51°20' E 004°21'0 0.0
2015-May-25 00:30N 51°20' E 004°21'0 0.0
2015-May-24 23:30N 51°20' E 004°21'0 0.0
2015-May-24 22:26N 51°20' E 004°21'0 0.0
2015-May-24 21:32N 51°20' E 004°21'0 0.0
2015-May-24 20:22N 51°20' E 004°21'0 0.0
2015-May-24 19:28N 51°20' E 004°21'0 0.0
2015-May-24 18:31N 51°20' E 004°21'0 0.0
2015-May-24 17:24N 51°20' E 004°21'0 0.0
2015-May-24 16:33N 51°20' E 004°21'0 0.0
2015-May-24 15:32N 51°20' E 004°21'0 0.0
2015-May-24 14:32N 51°20' E 004°21'0 0.0
2015-May-24 13:31N 51°20' E 004°21'0 0.0
2015-May-24 12:31N 51°20' E 004°21'0 0.0
2015-May-24 11:31N 51°20' E 004°21'0 0.0
2015-May-24 10:30N 51°20' E 004°21'0 0.0
2015-May-24 09:33N 51°20' E 004°21'0 0.0
2015-May-24 08:32N 51°20' E 004°21'0 0.0
2015-May-24 07:32N 51°20' E 004°21'0 0.0
2015-May-24 06:28N 51°20' E 004°21'0 0.0
2015-May-24 05:31N 51°20' E 004°21'0 0.0
2015-May-24 04:27N 51°20' E 004°21'0 0.0
2015-May-24 03:33N 51°20' E 004°21'0 0.0
2015-May-24 02:33N 51°20' E 004°21'0 0.0
2015-May-24 01:32N 51°20' E 004°21'0 0.0
2015-May-24 00:29N 51°20' E 004°21'0 0.0
2015-May-23 23:28N 51°20' E 004°21'0 0.0
2015-May-23 22:31N 51°20' E 004°21'0 0.0
2015-May-23 21:34N 51°20' E 004°21'0 0.0
2015-May-23 20:30N 51°20' E 004°21'0 0.0
2015-May-23 19:30N 51°20' E 004°21'0 0.0
2015-May-23 18:32N 51°20' E 004°21'0 0.0
2015-May-23 17:29N 51°20' E 004°21'0 0.0
2015-May-23 16:28N 51°20' E 004°21'0 0.0
2015-May-23 15:28N 51°20' E 004°21'0 0.0
2015-May-23 14:33N 51°20' E 004°21'0 0.0
2015-May-23 13:32N 51°20' E 004°21'0 0.0
2015-May-23 12:27N 51°20' E 004°21'0 0.0
2015-May-23 11:34N 51°20' E 004°21'0 0.0
2015-May-23 10:34N 51°20' E 004°21'2 1.7
2015-May-23 09:34N 51°20' E 004°18'1 0.7
2015-May-23 08:33N 51°21' E 004°17'4 3.9
2015-May-23 07:33N 51°23' E 004°13'9 9.1
2015-May-23 06:33N 51°26' E 003°59'1010.3
2015-May-23 05:34N 51°24' E 003°43'1111.3
2015-May-23 04:34N 51°25' E 003°24'1312.9
2015-May-23 03:33N 51°24' E 003°04'1211.7
2015-May-23 02:33N 51°22' E 002°46'9 9.5
2015-May-23 01:34N 51°22' E 002°31'3 3.1
2015-May-23 00:33N 51°21' E 002°26'1 0.7
2015-May-22 23:33N 51°21' E 002°25'5 5.4
2015-May-22 22:33N 51°18' E 002°17'6 5.5
2015-May-22 21:33N 51°19' E 002°08'7 7.2
2015-May-22 20:34N 51°23' E 001°59'1514.5
2015-May-22 19:34N 51°36' E 001°48'1414.1
2015-May-22 18:34N 51°50' E 001°43'1212.0
2015-May-22 17:33N 51°56' E 001°26'5 5.4
2015-May-22 16:32N 51°58' E 001°18'0 0.0
2015-May-22 15:32N 51°58' E 001°17'0 0.0
2015-May-22 14:31N 51°58' E 001°17'0 0.0
2015-May-22 13:31N 51°58' E 001°17'0 0.0
2015-May-22 12:30N 51°58' E 001°18'0 0.0
2015-May-22 11:33N 51°58' E 001°18'0 0.0
2015-May-22 10:33N 51°58' E 001°18'0 0.0
2015-May-22 09:32N 51°58' E 001°17'0 0.0
2015-May-22 08:32N 51°58' E 001°17'0 0.0
2015-May-22 07:31N 51°58' E 001°17'0 0.0
2015-May-22 06:31N 51°58' E 001°17'0 0.0
2015-May-22 05:33N 51°58' E 001°17'0 0.0
2015-May-22 04:33N 51°58' E 001°17'0 0.0
2015-May-22 03:33N 51°58' E 001°17'0 0.5
2015-May-22 02:34N 51°57' E 001°18'9 8.5
2015-May-22 01:33N 51°56' E 001°32'8 8.2
2015-May-22 00:33N 51°51' E 001°42'4 3.5
2015-May-21 23:33N 51°55' E 001°42'0 0.1
2015-May-21 22:32N 51°55' E 001°42'0 0.1
2015-May-21 21:32N 51°55' E 001°42'0 0.1
2015-May-21 20:31N 51°55' E 001°42'0 0.0
2015-May-21 19:31N 51°55' E 001°42'0 0.0
2015-May-21 18:33N 51°55' E 001°42'0 0.0
2015-May-21 17:33N 51°55' E 001°42'0 0.0
2015-May-21 16:33N 51°55' E 001°42'0 0.0
2015-May-21 15:32N 51°55' E 001°42'0 0.0
2015-May-21 14:32N 51°55' E 001°42'0 0.1
2015-May-21 13:31N 51°55' E 001°42'0 0.0
2015-May-21 12:31N 51°55' E 001°42'0 0.0
2015-May-21 11:33N 51°55' E 001°42'0 0.0
2015-May-21 10:33N 51°55' E 001°42'0 0.0
2015-May-21 09:33N 51°55' E 001°42'0 0.0
2015-May-21 08:32N 51°55' E 001°42'8 8.2
2015-May-21 07:33N 51°49' E 001°51'6916.0
2015-May-21 03:17N 52°31' E 003°21'1517.8
2015-May-21 02:25N 52°43' E 003°36'1619.0
2015-May-21 01:33N 52°55' E 003°55'1919.4
2015-May-21 00:33N 53°07' E 004°20'2019.5
2015-May-20 23:33N 53°24' E 004°35'1717.6
2015-May-20 22:34N 53°34' E 004°59'1717.2
2015-May-20 21:33N 53°39' E 005°27'1716.9
2015-May-20 20:32N 53°45' E 005°55'4920.8
2015-May-20 18:10N 53°58' E 007°15'5 8.5
2015-May-20 17:34N 53°59' E 007°24'1514.8
2015-May-20 16:33N 53°53' E 007°47'1414.2
2015-May-20 15:33N 53°47' E 008°09'1716.7
2015-May-20 14:33N 53°36' E 008°30'2 2.2
2015-May-20 13:33N 53°34' E 008°32'0 0.0
2015-May-20 12:32N 53°34' E 008°32'0 0.0
2015-May-20 11:32N 53°34' E 008°32'0 0.0
2015-May-20 10:31N 53°34' E 008°32'0 0.0
2015-May-20 09:31N 53°34' E 008°32'0 0.0
2015-May-20 08:31N 53°34' E 008°32'0 0.0
2015-May-20 07:33N 53°34' E 008°32'0 0.0
2015-May-20 06:33N 53°34' E 008°32'0 0.0
2015-May-20 05:32N 53°34' E 008°32'0 0.0
2015-May-20 04:32N 53°34' E 008°32'0 0.0
2015-May-20 03:31N 53°34' E 008°32'0 0.0
2015-May-20 02:31N 53°34' E 008°32'0 0.0
2015-May-20 01:32N 53°34' E 008°32'0 0.0
2015-May-20 00:33N 53°34' E 008°32'0 0.0
2015-May-19 23:33N 53°34' E 008°32'0 0.0
2015-May-19 22:32N 53°34' E 008°32'0 0.0
2015-May-19 21:32N 53°34' E 008°32'0 0.0
2015-May-19 20:31N 53°34' E 008°32'0 0.0
2015-May-19 19:31N 53°34' E 008°32'0 0.0
2015-May-19 18:31N 53°34' E 008°32'0 0.0
2015-May-19 17:33N 53°34' E 008°32'0 0.0
2015-May-19 16:33N 53°34' E 008°32'0 0.0
2015-May-19 15:32N 53°34' E 008°32'0 0.0
2015-May-19 14:32N 53°34' E 008°32'0 0.0
2015-May-19 13:31N 53°34' E 008°32'0 0.0
2015-May-19 12:31N 53°34' E 008°32'0 0.0
2015-May-19 11:31N 53°34' E 008°32'0 0.0
2015-May-19 10:33N 53°34' E 008°32'0 0.0
2015-May-19 09:33N 53°34' E 008°32'0 0.0
2015-May-19 08:32N 53°34' E 008°32'0 0.0
2015-May-19 07:32N 53°34' E 008°32'0 0.0
2015-May-19 06:33N 53°34' E 008°32'0 0.0
2015-May-19 05:33N 53°34' E 008°32'0 0.0
2015-May-19 04:33N 53°34' E 008°32'0 0.0
2015-May-19 03:33N 53°34' E 008°32'2 2.2
2015-May-19 02:33N 53°36' E 008°30'1414.2
2015-May-19 01:33N 53°45' E 008°12'1514.6
2015-May-19 00:33N 53°52' E 007°50'1212.4
2015-May-18 23:33N 53°54' E 007°29'1817.4
2015-May-18 22:32N 53°51' E 006°60'3819.0
2015-May-18 20:32N 53°41' E 005°57'2019.3
2015-May-18 19:31N 53°35' E 005°26'1919.7
2015-May-18 18:33N 53°28' E 004°56'1918.8
2015-May-18 17:33N 53°14' E 004°34'4919.7
2015-May-18 15:04N 52°33' E 003°51'9019.9
2015-May-18 10:33N 51°28' E 002°10'1717.2
2015-May-18 09:33N 51°12' E 001°59'1918.5
2015-May-18 08:33N 51°02' E 001°35'2017.5
2015-May-18 07:25N 50°43' E 001°22'  
Track history (hours):
 
Tides and Currents Weather Stations Pressure Air Temp Water Temp Dewpoint Dewpoint Depression Visibility Wind Speed Wind Dir Waves Ship Positions

MSC Barbara

Last reported at 2015-May-25 23:32 UTC. Time now 2015-May-25 23:40 UTC.
Position N 51°17' E 004°21'.

Length 512 m; draft 10.2 m.

Type: Ship. MMSI: 353775000.

Date/timePositionNaut miles runAvg speedWind from/ knotsBaromVisibWave heightAir tempDewpointWater temp
2015-May-25 23:32N 51°17' E 004°21'0 0.0
2015-May-25 22:32N 51°17' E 004°21'0 0.0
2015-May-25 21:31N 51°17' E 004°21'0 0.0
2015-May-25 20:31N 51°17' E 004°21'0 0.0
2015-May-25 19:33N 51°17' E 004°21'0 0.0
2015-May-25 18:33N 51°17' E 004°21'0 0.0
2015-May-25 17:33N 51°17' E 004°21'0 0.0
2015-May-25 16:32N 51°17' E 004°21'0 0.0
2015-May-25 15:32N 51°17' E 004°21'0 0.0
2015-May-25 14:31N 51°17' E 004°21'0 0.0
2015-May-25 13:31N 51°17' E 004°21'0 0.0
2015-May-25 12:32N 51°17' E 004°21'0 0.0
2015-May-25 11:30N 51°17' E 004°21'0 0.0
2015-May-25 10:33N 51°17' E 004°21'0 0.0
2015-May-25 09:29N 51°17' E 004°21'0 0.0
2015-May-25 08:32N 51°17' E 004°21'0 0.0
2015-May-25 07:31N 51°17' E 004°21'0 0.0
2015-May-25 06:28N 51°17' E 004°21'0 0.0
2015-May-25 05:33N 51°17' E 004°21'0 0.0
2015-May-25 04:30N 51°17' E 004°21'0 0.0
2015-May-25 03:33N 51°17' E 004°21'2 1.5
2015-May-25 02:33N 51°18' E 004°20'2 1.6
2015-May-25 01:31N 51°20' E 004°21'0 0.0
2015-May-25 00:30N 51°20' E 004°21'0 0.0
2015-May-24 23:30N 51°20' E 004°21'0 0.0
2015-May-24 22:26N 51°20' E 004°21'0 0.0
2015-May-24 21:32N 51°20' E 004°21'0 0.0
2015-May-24 20:22N 51°20' E 004°21'0 0.0
2015-May-24 19:28N 51°20' E 004°21'0 0.0
2015-May-24 18:31N 51°20' E 004°21'0 0.0
2015-May-24 17:24N 51°20' E 004°21'0 0.0
2015-May-24 16:33N 51°20' E 004°21'0 0.0
2015-May-24 15:32N 51°20' E 004°21'0 0.0
2015-May-24 14:32N 51°20' E 004°21'0 0.0
2015-May-24 13:31N 51°20' E 004°21'0 0.0
2015-May-24 12:31N 51°20' E 004°21'0 0.0
2015-May-24 11:31N 51°20' E 004°21'0 0.0
2015-May-24 10:30N 51°20' E 004°21'0 0.0
2015-May-24 09:33N 51°20' E 004°21'0 0.0
2015-May-24 08:32N 51°20' E 004°21'0 0.0
2015-May-24 07:32N 51°20' E 004°21'0 0.0
2015-May-24 06:28N 51°20' E 004°21'0 0.0
2015-May-24 05:31N 51°20' E 004°21'0 0.0
2015-May-24 04:27N 51°20' E 004°21'0 0.0
2015-May-24 03:33N 51°20' E 004°21'0 0.0
2015-May-24 02:33N 51°20' E 004°21'0 0.0
2015-May-24 01:32N 51°20' E 004°21'0 0.0
2015-May-24 00:29N 51°20' E 004°21'0 0.0
2015-May-23 23:28N 51°20' E 004°21'0 0.0
2015-May-23 22:31N 51°20' E 004°21'0 0.0
2015-May-23 21:34N 51°20' E 004°21'0 0.0
2015-May-23 20:30N 51°20' E 004°21'0 0.0
2015-May-23 19:30N 51°20' E 004°21'0 0.0
2015-May-23 18:32N 51°20' E 004°21'0 0.0
2015-May-23 17:29N 51°20' E 004°21'0 0.0
2015-May-23 16:28N 51°20' E 004°21'0 0.0
2015-May-23 15:28N 51°20' E 004°21'0 0.0
2015-May-23 14:33N 51°20' E 004°21'0 0.0
2015-May-23 13:32N 51°20' E 004°21'0 0.0
2015-May-23 12:27N 51°20' E 004°21'0 0.0
2015-May-23 11:34N 51°20' E 004°21'0 0.0
2015-May-23 10:34N 51°20' E 004°21'2 1.7
2015-May-23 09:34N 51°20' E 004°18'1 0.7
2015-May-23 08:33N 51°21' E 004°17'4 3.9
2015-May-23 07:33N 51°23' E 004°13'9 9.1
2015-May-23 06:33N 51°26' E 003°59'1010.3
2015-May-23 05:34N 51°24' E 003°43'1111.3
2015-May-23 04:34N 51°25' E 003°24'1312.9
2015-May-23 03:33N 51°24' E 003°04'1211.7
2015-May-23 02:33N 51°22' E 002°46'9 9.5
2015-May-23 01:34N 51°22' E 002°31'3 3.1
2015-May-23 00:33N 51°21' E 002°26'1 0.7
2015-May-22 23:33N 51°21' E 002°25'5 5.4
2015-May-22 22:33N 51°18' E 002°17'6 5.5
2015-May-22 21:33N 51°19' E 002°08'7 7.2
2015-May-22 20:34N 51°23' E 001°59'1514.5
2015-May-22 19:34N 51°36' E 001°48'1414.1
2015-May-22 18:34N 51°50' E 001°43'1212.0
2015-May-22 17:33N 51°56' E 001°26'5 5.4
2015-May-22 16:32N 51°58' E 001°18'0 0.0
2015-May-22 15:32N 51°58' E 001°17'0 0.0
2015-May-22 14:31N 51°58' E 001°17'0 0.0
2015-May-22 13:31N 51°58' E 001°17'0 0.0
2015-May-22 12:30N 51°58' E 001°18'0 0.0
2015-May-22 11:33N 51°58' E 001°18'0 0.0
2015-May-22 10:33N 51°58' E 001°18'0 0.0
2015-May-22 09:32N 51°58' E 001°17'0 0.0
2015-May-22 08:32N 51°58' E 001°17'0 0.0
2015-May-22 07:31N 51°58' E 001°17'0 0.0
2015-May-22 06:31N 51°58' E 001°17'0 0.0
2015-May-22 05:33N 51°58' E 001°17'0 0.0
2015-May-22 04:33N 51°58' E 001°17'0 0.0
2015-May-22 03:33N 51°58' E 001°17'0 0.5
2015-May-22 02:34N 51°57' E 001°18'9 8.5
2015-May-22 01:33N 51°56' E 001°32'8 8.2
2015-May-22 00:33N 51°51' E 001°42'4 3.5
2015-May-21 23:33N 51°55' E 001°42'0 0.1
2015-May-21 22:32N 51°55' E 001°42'0 0.1
2015-May-21 21:32N 51°55' E 001°42'0 0.1
2015-May-21 20:31N 51°55' E 001°42'0 0.0
2015-May-21 19:31N 51°55' E 001°42'0 0.0
2015-May-21 18:33N 51°55' E 001°42'0 0.0
2015-May-21 17:33N 51°55' E 001°42'0 0.0
2015-May-21 16:33N 51°55' E 001°42'0 0.0
2015-May-21 15:32N 51°55' E 001°42'0 0.0
2015-May-21 14:32N 51°55' E 001°42'0 0.1
2015-May-21 13:31N 51°55' E 001°42'0 0.0
2015-May-21 12:31N 51°55' E 001°42'0 0.0
2015-May-21 11:33N 51°55' E 001°42'0 0.0
2015-May-21 10:33N 51°55' E 001°42'0 0.0
2015-May-21 09:33N 51°55' E 001°42'0 0.0
2015-May-21 08:32N 51°55' E 001°42'8 8.2
2015-May-21 07:33N 51°49' E 001°51'6916.0
2015-May-21 03:17N 52°31' E 003°21'1517.8
2015-May-21 02:25N 52°43' E 003°36'1619.0
2015-May-21 01:33N 52°55' E 003°55'1919.4
2015-May-21 00:33N 53°07' E 004°20'2019.5
2015-May-20 23:33N 53°24' E 004°35'1717.6
2015-May-20 22:34N 53°34' E 004°59'1717.2
2015-May-20 21:33N 53°39' E 005°27'1716.9
2015-May-20 20:32N 53°45' E 005°55'4920.8
2015-May-20 18:10N 53°58' E 007°15'5 8.5
2015-May-20 17:34N 53°59' E 007°24'1514.8
2015-May-20 16:33N 53°53' E 007°47'1414.2
2015-May-20 15:33N 53°47' E 008°09'1716.7
2015-May-20 14:33N 53°36' E 008°30'2 2.2
2015-May-20 13:33N 53°34' E 008°32'0 0.0
2015-May-20 12:32N 53°34' E 008°32'0 0.0
2015-May-20 11:32N 53°34' E 008°32'0 0.0
2015-May-20 10:31N 53°34' E 008°32'0 0.0
2015-May-20 09:31N 53°34' E 008°32'0 0.0
2015-May-20 08:31N 53°34' E 008°32'0 0.0
2015-May-20 07:33N 53°34' E 008°32'0 0.0
2015-May-20 06:33N 53°34' E 008°32'0 0.0
2015-May-20 05:32N 53°34' E 008°32'0 0.0
2015-May-20 04:32N 53°34' E 008°32'0 0.0
2015-May-20 03:31N 53°34' E 008°32'0 0.0
2015-May-20 02:31N 53°34' E 008°32'0 0.0
2015-May-20 01:32N 53°34' E 008°32'0 0.0
2015-May-20 00:33N 53°34' E 008°32'0 0.0
2015-May-19 23:33N 53°34' E 008°32'0 0.0
2015-May-19 22:32N 53°34' E 008°32'0 0.0
2015-May-19 21:32N 53°34' E 008°32'0 0.0
2015-May-19 20:31N 53°34' E 008°32'0 0.0
2015-May-19 19:31N 53°34' E 008°32'0 0.0
2015-May-19 18:31N 53°34' E 008°32'0 0.0
2015-May-19 17:33N 53°34' E 008°32'0 0.0
2015-May-19 16:33N 53°34' E 008°32'0 0.0
2015-May-19 15:32N 53°34' E 008°32'0 0.0
2015-May-19 14:32N 53°34' E 008°32'0 0.0
2015-May-19 13:31N 53°34' E 008°32'0 0.0
2015-May-19 12:31N 53°34' E 008°32'0 0.0
2015-May-19 11:31N 53°34' E 008°32'0 0.0
2015-May-19 10:33N 53°34' E 008°32'0 0.0
2015-May-19 09:33N 53°34' E 008°32'0 0.0
2015-May-19 08:32N 53°34' E 008°32'0 0.0
2015-May-19 07:32N 53°34' E 008°32'0 0.0
2015-May-19 06:33N 53°34' E 008°32'0 0.0
2015-May-19 05:33N 53°34' E 008°32'0 0.0
2015-May-19 04:33N 53°34' E 008°32'0 0.0
2015-May-19 03:33N 53°34' E 008°32'2 2.2
2015-May-19 02:33N 53°36' E 008°30'1414.2
2015-May-19 01:33N 53°45' E 008°12'1514.6
2015-May-19 00:33N 53°52' E 007°50'1212.4
2015-May-18 23:33N 53°54' E 007°29'1817.4
2015-May-18 22:32N 53°51' E 006°60'3819.0
2015-May-18 20:32N 53°41' E 005°57'2019.3
2015-May-18 19:31N 53°35' E 005°26'1919.7
2015-May-18 18:33N 53°28' E 004°56'1918.8
2015-May-18 17:33N 53°14' E 004°34'4919.7
2015-May-18 15:04N 52°33' E 003°51'9019.9
2015-May-18 10:33N 51°28' E 002°10'1717.2
2015-May-18 09:33N 51°12' E 001°59'1918.5
2015-May-18 08:33N 51°02' E 001°35'2017.5
2015-May-18 07:25N 50°43' E 001°22'  

Dump ship's entire track history